createdAt,value
2018-02-16T00:01:40.979Z,95712.13
2018-02-16T00:04:07.579Z,95698.45
2018-02-16T00:06:34.210Z,95719.91
2018-02-16T00:09:00.771Z,95677.44
2018-02-16T00:11:27.346Z,95716.83
2018-02-16T00:13:53.932Z,95724.02
2018-02-16T00:16:20.557Z,95712.80
2018-02-16T00:18:47.114Z,95725.50
2018-02-16T00:21:13.677Z,95720.95
2018-02-16T00:23:40.291Z,95715.45
2018-02-16T00:26:06.865Z,95713.16
2018-02-16T00:28:33.468Z,95670.90
2018-02-16T00:31:00.036Z,95723.13
2018-02-16T00:33:26.629Z,95717.48
2018-02-16T00:35:53.159Z,95708.61
2018-02-16T00:38:19.734Z,95725.83
2018-02-16T00:40:46.300Z,95715.77
2018-02-16T00:43:12.927Z,95724.71
2018-02-16T00:45:39.493Z,95717.11
2018-02-16T00:48:06.083Z,95720.73
2018-02-16T00:50:32.666Z,95711.20
2018-02-16T00:52:59.328Z,95722.29
2018-02-16T00:55:25.934Z,95701.36
2018-02-16T00:57:52.573Z,95730.48
2018-02-16T01:00:19.177Z,95727.42
2018-02-16T01:02:45.780Z,95730.48
2018-02-16T01:05:12.343Z,95737.98
2018-02-16T01:07:38.917Z,95729.98
2018-02-16T01:10:05.551Z,95736.91
2018-02-16T01:12:32.118Z,95730.59
2018-02-16T01:14:58.764Z,95729.42
2018-02-16T01:17:25.344Z,95721.47
2018-02-16T01:19:52.081Z,95724.32
2018-02-16T01:22:18.655Z,95715.17
2018-02-16T01:24:45.274Z,95724.72
2018-02-16T01:27:11.882Z,95721.25
2018-02-16T01:29:38.564Z,95729.15
2018-02-16T01:32:05.189Z,95711.83
2018-02-16T01:34:31.770Z,95720.44
2018-02-16T01:36:58.453Z,95725.33
2018-02-16T01:39:25.047Z,95719.52
2018-02-16T01:41:51.683Z,95733.07
2018-02-16T01:44:18.273Z,95732.87
2018-02-16T01:46:44.911Z,95716.70
2018-02-16T01:49:11.476Z,95732.21
2018-02-16T01:51:38.057Z,95734.23
2018-02-16T01:54:04.650Z,95730.08
2018-02-16T01:56:31.222Z,95734.38
2018-02-16T01:58:57.847Z,95707.67
2018-02-16T02:01:24.408Z,95737.33
2018-02-16T02:03:51.015Z,95728.84
2018-02-16T02:06:17.663Z,95720.47
2018-02-16T02:08:44.515Z,95735.30
2018-02-16T02:11:11.172Z,95722.83
2018-02-16T02:13:37.780Z,95731.96
2018-02-16T02:16:04.372Z,95723.63
2018-02-16T02:18:30.984Z,95723.23
2018-02-16T02:20:57.558Z,95727.41
2018-02-16T02:23:24.196Z,95720.30
2018-02-16T02:25:50.769Z,95701.95
2018-02-16T02:28:17.366Z,95715.05
2018-02-16T02:30:43.954Z,95721.38
2018-02-16T02:33:10.548Z,95713.17
2018-02-16T02:35:37.191Z,95721.89
2018-02-16T02:38:03.767Z,95687.22
2018-02-16T02:40:30.356Z,95724.17
2018-02-16T02:42:56.917Z,95724.87
2018-02-16T02:45:23.562Z,95735.34
2018-02-16T02:47:50.164Z,95726.28
2018-02-16T02:50:16.725Z,95733.67
2018-02-16T02:52:43.302Z,95735.27
2018-02-16T02:55:09.923Z,95729.51
2018-02-16T02:57:36.563Z,95732.09
2018-02-16T03:00:03.140Z,95732.20
2018-02-16T03:02:29.775Z,95733.84
2018-02-16T03:04:56.354Z,95747.80
2018-02-16T03:07:22.972Z,95751.68
2018-02-16T03:09:49.578Z,95749.03
2018-02-16T03:12:16.157Z,95754.12
2018-02-16T03:14:42.763Z,95753.71
2018-02-16T03:17:09.398Z,95755.44
2018-02-16T03:19:36.006Z,95770.73
2018-02-16T03:22:02.589Z,95773.69
2018-02-16T03:24:29.239Z,95767.59
2018-02-16T03:26:55.881Z,95763.58
2018-02-16T03:29:22.491Z,95760.12
2018-02-16T03:31:49.077Z,95776.27
2018-02-16T03:34:15.652Z,95761.34
2018-02-16T03:36:42.281Z,95771.67
2018-02-16T03:39:08.874Z,95767.91
2018-02-16T03:41:35.438Z,95778.10
2018-02-16T03:44:02.015Z,95775.08
2018-02-16T03:46:28.672Z,95772.02
2018-02-16T03:48:55.279Z,95790.38
2018-02-16T03:51:21.885Z,95791.57
2018-02-16T03:53:48.449Z,95787.53
2018-02-16T03:56:15.040Z,95792.27
2018-02-16T03:58:41.613Z,95784.09
2018-02-16T04:01:08.264Z,95780.86
2018-02-16T04:03:34.865Z,95783.41
2018-02-16T04:06:01.490Z,95784.38
2018-02-16T04:08:28.106Z,95787.60
2018-02-16T04:10:54.743Z,95784.75
2018-02-16T04:13:21.326Z,95782.41
2018-02-16T04:15:47.944Z,95784.60
2018-02-16T04:18:14.575Z,95763.75
2018-02-16T04:20:41.145Z,95787.02
2018-02-16T04:23:07.712Z,95787.64
2018-02-16T04:25:34.285Z,95794.34
2018-02-16T04:28:00.850Z,95792.00
2018-02-16T04:30:27.420Z,95787.25
2018-02-16T04:32:53.989Z,95796.06
2018-02-16T04:35:20.570Z,95789.03
2018-02-16T04:37:47.163Z,95785.41
2018-02-16T04:40:13.797Z,95783.60
2018-02-16T04:42:40.352Z,95786.64
2018-02-16T04:45:06.964Z,95800.58
2018-02-16T04:47:33.534Z,95809.23
2018-02-16T04:50:00.109Z,95810.45
2018-02-16T04:52:26.669Z,95817.88
2018-02-16T04:54:53.248Z,95814.97
2018-02-16T04:57:19.831Z,95814.99
2018-02-16T04:59:46.439Z,95820.52
2018-02-16T05:02:13.009Z,95798.70
2018-02-16T05:04:39.598Z,95812.89
2018-02-16T05:07:06.233Z,95820.88
2018-02-16T05:09:32.909Z,95825.67
2018-02-16T05:11:59.481Z,95806.73
2018-02-16T05:14:26.056Z,95812.85
2018-02-16T05:16:52.664Z,95827.80
2018-02-16T05:19:19.251Z,95806.48
2018-02-16T05:21:45.833Z,95822.61
2018-02-16T05:24:12.414Z,95822.84
2018-02-16T05:26:39.073Z,95822.03
2018-02-16T05:29:05.650Z,95837.02
2018-02-16T05:31:32.286Z,95823.89
2018-02-16T05:33:58.851Z,95838.14
2018-02-16T05:36:25.506Z,95737.12
2018-02-16T05:38:52.051Z,95834.08
2018-02-16T05:41:18.676Z,95808.81
2018-02-16T05:43:45.307Z,95835.02
2018-02-16T05:46:11.919Z,95853.14
2018-02-16T05:48:38.552Z,95855.80
2018-02-16T05:51:05.115Z,95859.18
2018-02-16T05:53:31.687Z,95847.11
2018-02-16T05:55:58.253Z,95861.92
2018-02-16T05:58:24.807Z,95843.72
2018-02-16T06:00:51.421Z,95859.34
2018-02-16T06:03:18.025Z,95863.00
2018-02-16T06:05:44.587Z,95845.14
2018-02-16T06:08:11.158Z,95849.28
2018-02-16T06:10:37.763Z,95859.59
2018-02-16T06:13:04.379Z,95850.62
2018-02-16T06:15:30.967Z,95866.58
2018-02-16T06:17:57.539Z,95863.09
2018-02-16T06:20:24.119Z,95833.97
2018-02-16T06:22:50.694Z,95879.13
2018-02-16T06:25:17.337Z,95877.10
2018-02-16T06:27:43.956Z,95874.00
2018-02-16T06:30:10.561Z,95885.15
2018-02-16T06:32:37.160Z,95891.15
2018-02-16T06:35:03.736Z,95895.83
2018-02-16T06:37:30.629Z,95894.02
2018-02-16T06:39:57.245Z,95889.02
2018-02-16T06:42:23.864Z,95892.87
2018-02-16T06:44:50.591Z,95870.33
2018-02-16T06:47:17.203Z,95898.95
2018-02-16T06:49:43.873Z,95875.88
2018-02-16T06:52:11.688Z,95902.80
2018-02-16T06:54:37.424Z,95893.03
2018-02-16T06:57:04.107Z,95883.97
2018-02-16T06:59:30.813Z,95898.70
2018-02-16T07:01:57.468Z,95896.11
2018-02-16T07:04:24.057Z,95887.02
2018-02-16T07:06:50.689Z,95884.87
2018-02-16T07:09:17.260Z,95894.23
2018-02-16T07:11:43.933Z,95894.56
2018-02-16T07:14:10.528Z,95893.31
2018-02-16T07:16:37.181Z,95882.17
2018-02-16T07:19:03.738Z,95896.35
2018-02-16T07:21:30.410Z,95880.86
2018-02-16T07:23:58.329Z,95893.55
2018-02-16T07:26:24.951Z,95875.38
2018-02-16T07:28:51.533Z,95872.69
2018-02-16T07:31:19.085Z,95880.45
2018-02-16T07:33:45.652Z,95878.19
2018-02-16T07:36:12.261Z,95888.63
2018-02-16T07:38:39.104Z,95887.67
2018-02-16T07:41:05.743Z,95884.03
2018-02-16T07:43:32.387Z,95885.40
2018-02-16T07:45:59.037Z,95882.34
2018-02-16T07:48:25.689Z,95874.31
2018-02-16T07:50:52.290Z,95878.25
2018-02-16T07:53:18.870Z,95884.76
2018-02-16T07:55:45.529Z,95868.50
2018-02-16T07:58:12.130Z,95863.42
2018-02-16T08:00:38.743Z,95879.90
2018-02-16T08:03:05.402Z,95877.23
2018-02-16T08:05:32.053Z,95881.25
2018-02-16T08:07:58.622Z,95892.13
2018-02-16T08:10:25.214Z,95881.01
2018-02-16T08:12:51.814Z,95876.30
2018-02-16T08:15:18.649Z,95888.17
2018-02-16T08:17:45.237Z,95884.55
2018-02-16T08:20:12.068Z,95869.70
2018-02-16T08:22:38.687Z,95888.70
2018-02-16T08:25:05.292Z,95872.52
2018-02-16T08:27:31.903Z,95861.98
2018-02-16T08:29:58.503Z,95849.77
2018-02-16T08:32:25.178Z,95865.62
2018-02-16T08:34:51.844Z,95842.11
2018-02-16T08:37:18.678Z,95862.80
2018-02-16T08:39:45.315Z,95872.02
2018-02-16T08:42:11.955Z,95832.03
2018-02-16T08:44:38.528Z,95865.48
2018-02-16T08:47:05.117Z,95866.77
2018-02-16T08:49:31.706Z,95869.65
2018-02-16T08:51:58.282Z,95863.14
2018-02-16T08:54:24.967Z,95857.77
2018-02-16T08:56:51.561Z,95852.75
2018-02-16T08:59:18.154Z,95850.70
2018-02-16T09:01:44.821Z,95822.17
2018-02-16T09:04:11.732Z,95854.00
2018-02-16T09:06:38.711Z,95817.81
2018-02-16T09:09:05.277Z,95850.17
2018-02-16T09:13:37.137Z,95713.79
2018-02-16T09:18:00.434Z,95851.98
2018-02-16T09:20:27.040Z,95852.88
2018-02-16T09:22:53.663Z,95850.64
2018-02-16T09:25:20.234Z,95853.59
2018-02-16T09:27:46.867Z,95844.27
2018-02-16T09:30:13.695Z,95851.57
2018-02-16T09:32:40.256Z,95854.64
2018-02-16T09:35:06.880Z,95855.59
2018-02-16T09:37:36.304Z,95848.98
2018-02-16T09:40:02.842Z,95856.66
2018-02-16T09:42:29.430Z,95854.77
2018-02-16T09:44:56.096Z,95854.37
2018-02-16T09:47:22.653Z,95842.24
2018-02-16T09:49:49.307Z,95858.12
2018-02-16T09:52:15.993Z,95855.15
2018-02-16T09:54:42.636Z,95847.48
2018-02-16T09:57:09.198Z,95850.31
2018-02-16T09:59:35.823Z,95847.91
2018-02-16T10:02:02.469Z,95858.27
2018-02-16T10:04:29.021Z,95865.00
2018-02-16T10:06:55.649Z,95863.80
2018-02-16T10:09:22.286Z,95873.49
2018-02-16T10:11:48.915Z,95878.47
2018-02-16T10:14:15.557Z,95876.45
2018-02-16T10:16:42.586Z,95876.72
2018-02-16T10:19:09.247Z,95876.59
2018-02-16T10:21:35.854Z,95873.11
2018-02-16T10:24:02.488Z,95883.07
2018-02-16T10:26:29.160Z,95866.77
2018-02-16T10:28:55.948Z,95860.59
2018-02-16T10:31:22.614Z,95869.99
2018-02-16T10:33:49.208Z,95863.00
2018-02-16T10:36:15.826Z,95852.52
2018-02-16T10:38:42.365Z,95864.62
2018-02-16T10:41:09.045Z,95862.06
2018-02-16T10:43:35.698Z,95831.22
2018-02-16T10:46:02.330Z,95856.96
2018-02-16T10:48:28.978Z,95853.73
2018-02-16T10:50:55.615Z,95831.09
2018-02-16T10:53:22.308Z,95855.46
2018-02-16T10:55:49.080Z,95850.75
2018-02-16T10:58:15.669Z,95836.89
2018-02-16T11:00:42.351Z,95795.97
2018-02-16T11:03:09.120Z,95844.91
2018-02-16T11:05:35.720Z,95830.00
2018-02-16T11:08:02.345Z,95835.11
2018-02-16T11:10:29.013Z,95831.77
2018-02-16T11:12:55.617Z,95805.14
2018-02-16T11:15:22.206Z,95818.47
2018-02-16T11:17:48.934Z,95819.81
2018-02-16T11:20:15.927Z,95816.00
2018-02-16T11:22:42.451Z,95819.78
2018-02-16T11:25:09.134Z,95802.97
2018-02-16T11:27:35.708Z,95825.28
2018-02-16T11:30:02.314Z,95818.30
2018-02-16T11:32:29.074Z,95822.84
2018-02-16T11:34:55.702Z,95820.03
2018-02-16T11:37:22.348Z,95808.02
2018-02-16T11:39:48.946Z,95778.45
2018-02-16T11:42:15.654Z,95797.27
2018-02-16T11:44:42.257Z,95802.91
2018-02-16T11:47:08.857Z,95797.11
2018-02-16T11:49:35.493Z,95794.30
2018-02-16T11:52:03.206Z,95798.56
2018-02-16T11:54:29.790Z,95786.99
2018-02-16T11:56:56.535Z,95782.00
2018-02-16T11:59:23.221Z,95786.00
2018-02-16T12:01:49.867Z,95784.83
2018-02-16T12:04:16.456Z,95769.64
2018-02-16T12:06:43.047Z,95747.57
2018-02-16T12:09:09.647Z,95767.34
2018-02-16T12:11:36.314Z,95780.41
2018-02-16T12:14:02.923Z,95770.14
2018-02-16T12:16:29.525Z,95766.75
2018-02-16T12:18:56.128Z,95756.08
2018-02-16T12:21:22.723Z,95758.14
2018-02-16T12:23:49.301Z,95755.73
2018-02-16T12:26:15.870Z,95739.06
2018-02-16T12:28:42.575Z,95750.46
2018-02-16T12:31:09.226Z,95769.50
2018-02-16T12:33:35.812Z,95756.47
2018-02-16T12:36:02.495Z,95753.52
2018-02-16T12:38:29.127Z,95748.55
2018-02-16T12:40:56.752Z,95760.41
2018-02-16T12:43:23.452Z,95760.86
2018-02-16T12:45:50.028Z,95755.01
2018-02-16T12:48:16.718Z,95765.74
2018-02-16T12:50:43.323Z,95760.59
2018-02-16T12:53:09.994Z,95753.86
2018-02-16T12:55:36.681Z,95761.99
2018-02-16T12:58:03.303Z,95749.93
2018-02-16T13:00:45.040Z,95753.23
2018-02-16T13:03:11.629Z,95752.12
2018-02-16T13:05:38.291Z,95741.24
2018-02-16T13:08:04.854Z,95751.00
2018-02-16T13:10:31.435Z,95711.52
2018-02-16T13:12:58.151Z,95757.21
2018-02-16T13:15:24.886Z,95718.88
2018-02-16T13:17:51.573Z,95742.38
2018-02-16T13:20:18.437Z,95706.73
2018-02-16T13:22:45.068Z,95717.25
2018-02-16T13:25:11.689Z,95720.36
2018-02-16T13:27:38.304Z,95709.40
2018-02-16T13:30:04.994Z,95730.98
2018-02-16T13:32:31.562Z,95698.94
2018-02-16T13:34:58.181Z,95727.20
2018-02-16T13:37:24.829Z,95725.84
2018-02-16T13:39:51.574Z,95725.44
2018-02-16T13:42:18.304Z,95709.73
2018-02-16T13:44:44.977Z,95711.96
2018-02-16T13:47:11.703Z,95698.67
2018-02-16T13:49:38.428Z,95696.54
2018-02-16T13:52:05.038Z,95712.91
2018-02-16T13:54:32.012Z,95731.30
2018-02-16T13:56:58.664Z,95731.81
2018-02-16T13:59:25.267Z,95715.48
2018-02-16T14:01:52.003Z,95729.02
2018-02-16T14:04:18.580Z,95728.17
2018-02-16T14:06:45.307Z,95730.78
2018-02-16T14:09:11.917Z,95731.72
2018-02-16T14:11:38.548Z,95727.57
2018-02-16T14:14:05.168Z,95722.16
2018-02-16T14:16:31.759Z,95724.48
2018-02-16T14:18:58.395Z,95727.01
2018-02-16T14:21:24.994Z,95722.66
2018-02-16T14:23:51.643Z,95710.91
2018-02-16T14:26:18.581Z,95701.93
2018-02-16T14:28:45.181Z,95698.08
2018-02-16T14:31:11.800Z,95715.66
2018-02-16T14:33:38.499Z,95697.86
2018-02-16T14:36:05.127Z,95707.62
2018-02-16T14:38:31.743Z,95719.08
2018-02-16T14:40:58.455Z,95702.13
2018-02-16T14:43:27.062Z,95715.88
2018-02-16T14:45:53.772Z,95712.53
2018-02-16T14:48:20.405Z,95704.48
2018-02-16T14:50:47.011Z,95712.27
2018-02-16T14:53:13.698Z,95715.20
2018-02-16T14:55:40.424Z,95716.60
2018-02-16T14:58:07.049Z,95715.63
2018-02-16T15:00:33.645Z,95708.13
2018-02-16T15:03:00.359Z,95708.68
2018-02-16T15:05:26.927Z,95718.42
2018-02-16T15:07:53.596Z,95710.73
2018-02-16T15:10:20.236Z,95728.33
2018-02-16T15:12:46.844Z,95731.46
2018-02-16T15:15:13.517Z,95719.22
2018-02-16T15:17:40.144Z,95729.44
2018-02-16T15:20:06.680Z,95718.98
2018-02-16T15:29:37.824Z,95732.33
2018-02-16T15:33:42.405Z,95724.93
2018-02-16T15:36:09.031Z,95699.68
2018-02-16T15:38:35.671Z,95721.77
2018-02-16T15:41:02.268Z,95742.87
2018-02-16T15:43:28.879Z,95738.11
2018-02-16T15:45:55.445Z,95739.40
2018-02-16T15:48:22.024Z,95737.08
2018-02-16T15:50:48.668Z,95702.72
2018-02-16T15:53:15.304Z,95724.25
2018-02-16T15:55:41.870Z,95714.38
2018-02-16T15:58:09.632Z,95743.31
2018-02-16T16:00:36.214Z,95745.69
2018-02-16T16:03:02.857Z,95751.30
2018-02-16T16:05:29.430Z,95717.72
2018-02-16T16:07:56.041Z,95749.56
2018-02-16T16:10:22.640Z,95765.57
2018-02-16T16:12:49.242Z,95768.51
2018-02-16T16:15:15.839Z,95763.55
2018-02-16T16:17:42.403Z,95766.90
2018-02-16T16:20:09.005Z,95765.47
2018-02-16T16:22:35.576Z,95774.70
2018-02-16T16:25:02.192Z,95777.52
2018-02-16T16:27:28.760Z,95771.47
2018-02-16T16:29:55.389Z,95768.10
2018-02-16T16:32:21.953Z,95771.36
2018-02-16T16:34:48.557Z,95775.67
2018-02-16T16:37:15.189Z,95769.33
2018-02-16T16:39:41.809Z,95774.71
2018-02-16T16:42:08.414Z,95777.01
2018-02-16T16:44:35.026Z,95774.45
2018-02-16T16:47:01.688Z,95785.21
2018-02-16T16:49:28.260Z,95779.98
2018-02-16T16:51:56.878Z,95782.66
2018-02-16T16:54:23.524Z,95776.87
2018-02-16T16:56:50.082Z,95766.94
2018-02-16T16:59:16.691Z,95778.23
2018-02-16T17:01:43.271Z,95778.89
2018-02-16T17:04:09.886Z,95778.06
2018-02-16T17:06:36.494Z,95781.59
2018-02-16T17:09:03.062Z,95779.55
2018-02-16T17:11:29.678Z,95784.66
2018-02-16T17:13:56.283Z,95793.55
2018-02-16T17:16:22.853Z,95787.48
2018-02-16T17:18:49.492Z,95774.86
2018-02-16T17:21:16.099Z,95782.52
2018-02-16T17:23:42.701Z,95791.25
2018-02-16T17:26:09.299Z,95782.92
2018-02-16T17:28:35.953Z,95787.22
2018-02-16T17:31:02.565Z,95792.47
2018-02-16T17:33:29.165Z,95794.62
2018-02-16T17:35:55.732Z,95776.18
2018-02-16T17:38:22.342Z,95800.50
2018-02-16T17:40:48.910Z,95806.05
2018-02-16T17:43:15.501Z,95803.59
2018-02-16T17:45:42.159Z,95804.00
2018-02-16T17:48:08.734Z,95810.31
2018-02-16T17:50:35.293Z,95795.13
2018-02-16T17:53:01.910Z,95801.85
2018-02-16T17:55:28.470Z,95806.02
2018-02-16T17:57:55.074Z,95791.23
2018-02-16T18:00:21.692Z,95796.61
2018-02-16T18:02:48.352Z,95792.84
2018-02-16T18:05:14.954Z,95785.59
2018-02-16T18:07:41.514Z,95791.91
2018-02-16T18:10:08.123Z,95784.85
2018-02-16T18:12:34.733Z,95788.14
2018-02-16T18:15:01.305Z,95785.02
2018-02-16T18:17:27.943Z,95790.36
2018-02-16T18:19:54.489Z,95787.73
2018-02-16T18:22:21.102Z,95779.94
2018-02-16T18:24:47.677Z,95780.88
2018-02-16T18:27:14.288Z,95777.59
2018-02-16T18:29:40.853Z,95787.00
2018-02-16T18:32:07.442Z,95786.73
2018-02-16T18:34:34.074Z,95785.25
2018-02-16T18:37:00.669Z,95789.15
2018-02-16T18:39:27.244Z,95788.58
2018-02-16T18:41:53.867Z,95780.59
2018-02-16T18:44:20.548Z,95796.14
2018-02-16T18:49:54.965Z,95803.34
2018-02-16T18:52:25.151Z,95805.35
2018-02-16T18:54:51.721Z,95797.66
2018-02-16T18:57:18.329Z,95803.47
2018-02-16T18:59:44.961Z,95811.36
2018-02-16T19:02:11.590Z,95812.97
2018-02-16T19:04:38.242Z,95814.98
2018-02-16T19:07:04.837Z,95813.91
2018-02-16T19:09:31.441Z,95824.24
2018-02-16T19:11:58.072Z,95825.84
2018-02-16T19:14:24.649Z,95820.34
2018-02-16T19:16:51.209Z,95828.41
2018-02-16T19:19:17.817Z,95818.45
2018-02-16T19:21:44.450Z,95818.81
2018-02-16T19:24:11.142Z,95828.94
2018-02-16T19:26:37.708Z,95828.25
2018-02-16T19:29:04.309Z,95817.78
2018-02-16T19:31:30.933Z,95822.60
2018-02-16T19:33:57.502Z,95829.86
2018-02-16T19:36:24.069Z,95829.33
2018-02-16T19:38:50.779Z,95815.17
2018-02-16T19:41:17.347Z,95833.63
2018-02-16T19:43:44.069Z,95823.69
2018-02-16T19:46:10.670Z,95812.89
2018-02-16T19:48:37.294Z,95818.45
2018-02-16T19:51:03.927Z,95819.61
2018-02-16T19:53:30.485Z,95822.56
2018-02-16T19:55:57.045Z,95829.00
2018-02-16T19:58:23.648Z,95822.84
2018-02-16T20:00:50.385Z,95827.27
2018-02-16T20:03:17.014Z,95822.95
2018-02-16T20:05:43.580Z,95817.43
2018-02-16T20:08:10.230Z,95824.16
2018-02-16T20:10:36.847Z,95822.95
2018-02-16T20:13:03.413Z,95824.41
2018-02-16T20:15:30.026Z,95827.64
2018-02-16T20:17:56.619Z,95824.77
2018-02-16T20:20:23.278Z,95821.05
2018-02-16T20:22:49.870Z,95807.45
2018-02-16T20:25:16.433Z,95815.41
2018-02-16T20:27:43.061Z,95809.23
2018-02-16T20:30:09.638Z,95819.05
2018-02-16T20:32:36.262Z,95820.25
2018-02-16T20:35:02.896Z,95822.15
2018-02-16T20:37:29.487Z,95820.53
2018-02-16T20:39:56.099Z,95821.74
2018-02-16T20:42:22.678Z,95822.81
2018-02-16T20:44:49.375Z,95830.88
2018-02-16T20:47:15.942Z,95831.15
2018-02-16T20:49:42.543Z,95837.31
2018-02-16T20:52:09.170Z,95833.55
2018-02-16T20:54:35.794Z,95841.73
2018-02-16T20:57:02.397Z,95836.52
2018-02-16T20:59:28.971Z,95841.50
2018-02-16T21:01:55.592Z,95837.73
2018-02-16T21:04:22.191Z,95840.69
2018-02-16T21:06:48.778Z,95839.61
2018-02-16T21:09:15.397Z,95843.89
2018-02-16T21:11:41.967Z,95850.34
2018-02-16T21:14:08.622Z,95853.30
2018-02-16T21:16:35.245Z,95856.36
2018-02-16T21:19:01.832Z,95858.38
2018-02-16T21:21:28.434Z,95856.09
2018-02-16T21:23:55.042Z,95854.75
2018-02-16T21:26:21.608Z,95862.27
2018-02-16T21:28:48.327Z,95855.96
2018-02-16T21:31:14.986Z,95854.71
2018-02-16T21:33:41.593Z,95859.86
2018-02-16T21:36:08.198Z,95849.64
2018-02-16T21:38:34.815Z,95853.81
2018-02-16T21:41:01.433Z,95839.33
2018-02-16T21:43:27.997Z,95859.98
2018-02-16T21:45:54.600Z,95858.92
2018-02-16T21:48:21.235Z,95858.11
2018-02-16T21:50:47.798Z,95867.91
2018-02-16T21:53:14.529Z,95867.09
2018-02-16T21:55:41.125Z,95870.59
2018-02-16T21:58:07.871Z,95877.45
2018-02-16T22:00:34.618Z,95869.88
2018-02-16T22:03:01.209Z,95874.04
2018-02-16T22:05:27.834Z,95874.30
2018-02-16T22:07:54.445Z,95883.20
2018-02-16T22:10:21.023Z,95867.16
2018-02-16T22:12:47.626Z,95882.48
2018-02-16T22:15:14.237Z,95878.37
2018-02-16T22:17:40.933Z,95884.11
2018-02-16T22:20:07.520Z,95881.56
2018-02-16T22:22:34.076Z,95879.66
2018-02-16T22:25:00.677Z,95884.90
2018-02-16T22:27:27.308Z,95882.40
2018-02-16T22:29:53.882Z,95877.92
2018-02-16T22:32:20.446Z,95881.94
2018-02-16T22:34:47.059Z,95878.05
2018-02-16T22:37:13.717Z,95876.97
2018-02-16T22:39:40.332Z,95877.37
2018-02-16T22:42:06.956Z,95876.29
2018-02-16T22:44:33.536Z,95865.44
2018-02-16T22:47:00.162Z,95876.97
2018-02-16T22:49:26.745Z,95879.79
2018-02-16T22:51:53.318Z,95874.11
2018-02-16T22:54:19.938Z,95869.27
2018-02-16T22:56:46.587Z,95869.80
2018-02-16T22:59:13.261Z,95865.90
2018-02-16T23:01:39.908Z,95869.66
2018-02-16T23:04:06.497Z,95856.22
2018-02-16T23:06:33.067Z,95862.67
2018-02-16T23:08:59.688Z,95867.11
2018-02-16T23:11:26.253Z,95859.19
2018-02-16T23:13:52.859Z,95872.48
2018-02-16T23:16:19.494Z,95865.13
2018-02-16T23:18:46.082Z,95872.06
2018-02-16T23:21:12.676Z,95877.03
2018-02-16T23:23:39.292Z,95875.16
2018-02-16T23:26:05.856Z,95875.30
2018-02-16T23:28:32.422Z,95872.87
2018-02-16T23:30:59.032Z,95869.33
2018-02-16T23:33:25.589Z,95862.33
2018-02-16T23:35:52.194Z,95866.08
2018-02-16T23:38:18.764Z,95865.16
2018-02-16T23:40:45.398Z,95855.20
2018-02-16T23:43:11.976Z,95858.97
2018-02-16T23:45:38.602Z,95875.91
2018-02-16T23:48:05.232Z,95872.69
2018-02-16T23:50:31.880Z,95873.45
2018-02-16T23:52:58.452Z,95879.37
2018-02-16T23:55:25.048Z,95876.15
2018-02-16T23:57:51.649Z,95873.86
